Time;durP1;ratioP1;P1;durP2;ratioP2;P2;SDS_P1;SDS_P2;PMS_P1;PMS_P2;Temp;Humidity;BMP_temperature;BMP_pressure;BME280_temperature;BME280_humidity;BME280_pressure;Samples;Min_cycle;Max_cycle;Signal;HPM_P1;HPM_P2
2022/06/08 00:01:05;;;;;;;4.63;2.30;;;;;10.80;93898.00;;;;7393531;19;20596;-75
2022/06/08 00:03:45;;;;;;;3.67;2.25;;;;;10.80;93900.00;;;;7392657;19;20159;-74
2022/06/08 00:06:19;;;;;;;7.07;2.65;;;;;10.70;93891.00;;;;7392976;19;20140;-75
2022/06/08 00:08:47;;;;;;;3.00;2.17;;;;;10.80;93892.00;;;;7393684;19;20588;-75
2022/06/08 00:11:16;;;;;;;4.53;2.22;;;;;10.80;93886.00;;;;7393221;19;20585;-75
2022/06/08 00:13:50;;;;;;;2.63;2.10;;;;;10.80;93884.00;;;;7393103;19;20203;-75
2022/06/08 00:16:19;;;;;;;5.80;2.85;;;;;10.60;93878.00;;;;7391672;19;20527;-75
2022/06/08 00:18:46;;;;;;;3.00;2.05;;;;;10.60;93873.00;;;;7393581;19;20129;-75
2022/06/08 00:21:20;;;;;;;4.47;2.20;;;;;10.60;93875.00;;;;7391564;19;20164;-75
2022/06/08 00:23:48;;;;;;;4.93;2.50;;;;;10.60;93867.00;;;;7392761;19;20133;-74
2022/06/08 00:26:16;;;;;;;3.80;1.90;;;;;10.50;93880.00;;;;7393214;19;20145;-75
2022/06/08 00:28:51;;;;;;;3.63;2.10;;;;;10.50;93874.00;;;;7393234;19;20195;-75
2022/06/08 00:31:19;;;;;;;6.18;2.20;;;;;10.40;93867.00;;;;7393449;19;20588;-75
2022/06/08 00:33:48;;;;;;;6.20;2.30;;;;;10.50;93864.00;;;;7392204;19;20140;-75
2022/06/08 00:36:22;;;;;;;6.75;2.28;;;;;10.60;93858.00;;;;7393601;19;20185;-75
2022/06/08 00:38:50;;;;;;;7.85;2.25;;;;;10.60;93857.00;;;;7392800;19;20155;-74
2022/06/08 00:41:53;;;;;;;4.43;2.08;;;;;10.50;93851.00;;;;7391802;19;20162;-75
2022/06/08 00:44:50;;;;;;;3.67;2.08;;;;;10.50;93855.00;;;;7391815;19;20470;-75
2022/06/08 00:47:30;;;;;;;5.60;1.97;;;;;10.40;93857.00;;;;7389556;19;20169;-74
2022/06/08 00:50:20;;;;;;;4.93;2.10;;;;;10.30;93852.00;;;;7393239;19;20192;-74
2022/06/08 00:52:49;;;;;;;3.90;2.03;;;;;10.60;93848.00;;;;7391547;19;20518;-74
2022/06/08 00:55:27;;;;;;;5.53;1.98;;;;;10.70;93842.00;;;;7392363;19;20147;-75
2022/06/08 00:58:11;;;;;;;4.90;1.80;;;;;10.60;93840.00;;;;7391713;19;20133;-74
2022/06/08 01:00:46;;;;;;;7.80;2.60;;;;;10.70;93839.00;;;;7389015;19;20133;-74
2022/06/08 01:03:15;;;;;;;7.50;2.00;;;;;10.70;93839.00;;;;7390844;19;20623;-75
2022/06/08 01:05:55;;;;;;;4.93;2.10;;;;;10.70;93838.00;;;;7393093;19;20125;-75
2022/06/08 01:08:46;;;;;;;3.77;2.03;;;;;10.60;93837.00;;;;7393048;19;20120;-76
2022/06/08 01:11:20;;;;;;;2.17;1.60;;;;;10.50;93842.00;;;;7391729;19;20137;-74
2022/06/08 01:13:59;;;;;;;6.25;2.22;;;;;10.50;93840.00;;;;7392687;19;20147;-75
2022/06/08 01:16:26;;;;;;;4.73;2.07;;;;;10.70;93829.00;;;;7389984;19;20151;-75
2022/06/08 01:18:55;;;;;;;5.27;2.10;;;;;10.60;93832.00;;;;7390876;19;20124;-75
2022/06/08 01:21:29;;;;;;;5.05;2.05;;;;;10.50;93843.00;;;;7390554;19;20480;-74
2022/06/08 01:24:02;;;;;;;2.67;1.70;;;;;10.50;93825.00;;;;7390956;19;20125;-75
2022/06/08 01:26:43;;;;;;;4.07;2.00;;;;;10.50;93833.00;;;;7390558;19;20200;-74
2022/06/08 01:29:31;;;;;;;3.63;1.80;;;;;10.40;93831.00;;;;7392044;19;20147;-76
2022/06/08 01:32:11;;;;;;;6.70;1.88;;;;;10.40;93823.00;;;;7390140;19;20141;-75
2022/06/08 01:35:26;;;;;;;5.63;1.90;;;;;10.40;93821.00;;;;7391552;19;20171;-74
2022/06/08 01:38:13;;;;;;;3.20;2.20;;;;;10.60;93827.00;;;;7390751;19;20516;-75
2022/06/08 01:41:25;;;;;;;5.13;1.87;;;;;10.50;93831.00;;;;7391796;19;20129;-75
2022/06/08 01:44:39;;;;;;;3.70;1.83;;;;;10.60;93823.00;;;;7390300;19;20512;-75
2022/06/08 01:48:00;;;;;;;4.20;1.90;;;;;10.50;93815.00;;;;7388191;19;20176;-75
2022/06/08 01:51:03;;;;;;;7.67;1.90;;;;;10.60;93817.00;;;;7391558;19;20147;-75
2022/06/08 01:53:53;;;;;;;4.67;2.13;;;;;10.60;93816.00;;;;7390983;19;20117;-75
2022/06/08 01:56:39;;;;;;;5.20;1.93;;;;;10.60;93805.00;;;;7390825;19;20507;-74
2022/06/08 01:59:42;;;;;;;5.22;1.98;;;;;10.60;93815.00;;;;7390849;19;20133;-74
2022/06/08 02:02:39;;;;;;;4.30;1.83;;;;;10.50;93814.00;;;;7391283;19;20601;-74
2022/06/08 02:05:21;;;;;;;7.38;1.60;;;;;10.50;93802.00;;;;7391147;19;20176;-74
2022/06/08 02:08:14;;;;;;;3.30;1.87;;;;;10.40;93808.00;;;;7390620;19;20141;-75
2022/06/08 02:11:18;;;;;;;4.68;1.75;;;;;10.40;93810.00;;;;7389950;19;20140;-76
2022/06/08 02:13:58;;;;;;;6.70;2.10;;;;;10.60;93797.00;;;;7397065;19;20623;-74
2022/06/08 02:16:41;;;;;;;3.33;1.95;;;;;10.60;93793.00;;;;7396423;19;20152;-75
2022/06/08 02:19:29;;;;;;;4.25;2.00;;;;;10.70;93785.00;;;;7397295;19;20144;-74
2022/06/08 02:22:25;;;;;;;5.50;2.13;;;;;10.70;93788.00;;;;7394723;19;20175;-75
2022/06/08 02:25:02;;;;;;;5.83;2.40;;;;;10.80;93786.00;;;;7397362;19;20142;-75
2022/06/08 02:27:40;;;;;;;4.53;1.90;;;;;10.80;93784.00;;;;7397000;19;20168;-76
2022/06/08 02:30:21;;;;;;;3.03;2.03;;;;;10.70;93782.00;;;;7397332;19;20133;-75
2022/06/08 02:36:25;;;;;;;4.70;1.63;;;;;10.70;93767.00;;;;7393239;19;20222;-75
2022/06/08 02:39:09;;;;;;;6.72;2.10;;;;;10.70;93773.00;;;;7394758;19;20505;-75
2022/06/08 02:41:46;;;;;;;2.63;1.70;;;;;10.70;93767.00;;;;7396871;19;20148;-76
2022/06/08 02:44:19;;;;;;;7.55;1.80;;;;;10.70;93766.00;;;;7396373;19;20137;-75
2022/06/08 02:47:19;;;;;;;4.55;2.13;;;;;10.60;93772.00;;;;7394301;19;20624;-75
2022/06/08 02:49:46;;;;;;;4.72;1.80;;;;;10.50;93767.00;;;;7396771;19;20132;-76
2022/06/08 02:52:23;;;;;;;4.20;1.90;;;;;10.60;93766.00;;;;7395092;19;20228;-75
2022/06/08 02:54:51;;;;;;;4.78;2.17;;;;;10.60;93762.00;;;;7396499;19;20133;-74
2022/06/08 02:57:44;;;;;;;4.18;1.55;;;;;10.60;93760.00;;;;7394002;19;20144;-75
2022/06/08 03:00:31;;;;;;;4.68;1.80;;;;;10.50;93757.00;;;;7396044;19;20137;-75
2022/06/08 03:03:12;;;;;;;6.05;1.63;;;;;10.60;93758.00;;;;7396911;19;20490;-75
2022/06/08 03:06:09;;;;;;;6.18;2.10;;;;;10.60;93762.00;;;;7395261;19;20121;-75
2022/06/08 03:08:43;;;;;;;4.25;1.80;;;;;10.40;93758.00;;;;7395697;19;20475;-75
2022/06/08 03:11:19;;;;;;;4.68;2.17;;;;;10.50;93754.00;;;;7396424;19;20144;-75
2022/06/08 03:14:02;;;;;;;9.02;1.80;;;;;10.50;93746.00;;;;7395540;19;20133;-75
2022/06/08 03:16:53;;;;;;;2.85;1.50;;;;;10.40;93746.00;;;;7395120;19;20500;-75
2022/06/08 03:19:21;;;;;;;4.15;1.88;;;;;10.40;93743.00;;;;7395892;19;20162;-75
2022/06/08 03:21:56;;;;;;;4.07;2.40;;;;;10.30;93734.00;;;;7393066;19;20628;-75
2022/06/08 03:24:26;;;;;;;4.23;1.80;;;;;10.30;93738.00;;;;7391879;19;20593;-74
2022/06/08 03:26:59;;;;;;;3.47;1.90;;;;;10.40;93730.00;;;;7395322;19;20129;-74
2022/06/08 03:29:33;;;;;;;4.80;1.65;;;;;10.40;93738.00;;;;7396929;19;20599;-75
2022/06/08 03:32:01;;;;;;;4.07;1.80;;;;;10.40;93735.00;;;;7394753;19;20605;-75
2022/06/08 03:34:29;;;;;;;3.70;1.80;;;;;10.40;93730.00;;;;7394791;19;20474;-75
2022/06/08 03:37:04;;;;;;;6.73;1.80;;;;;10.50;93725.00;;;;7393757;19;20660;-75
2022/06/08 03:39:32;;;;;;;6.83;2.10;;;;;10.50;93724.00;;;;7394785;19;20128;-75
2022/06/08 03:41:59;;;;;;;6.73;1.97;;;;;10.50;93727.00;;;;7394124;19;20493;-75
2022/06/08 03:44:33;;;;;;;3.78;1.85;;;;;10.60;93736.00;;;;7393924;19;20137;-75
2022/06/08 03:47:22;;;;;;;4.80;1.80;;;;;10.60;93743.00;;;;7392868;19;20182;-76
2022/06/08 03:50:06;;;;;;;4.70;1.80;;;;;10.70;93740.00;;;;7394706;19;20144;-75
2022/06/08 03:52:37;;;;;;;5.07;1.75;;;;;10.90;93734.00;;;;7395022;19;20147;-75
2022/06/08 03:55:15;;;;;;;5.78;2.10;;;;;11.00;93730.00;;;;7393162;19;20202;-75
2022/06/08 03:57:45;;;;;;;3.05;1.80;;;;;11.00;93730.00;;;;7392082;19;20182;-76
2022/06/08 04:00:22;;;;;;;3.55;1.60;;;;;11.00;93727.00;;;;7393655;19;20145;-75
2022/06/08 04:02:50;;;;;;;5.10;1.80;;;;;11.00;93725.00;;;;7394385;19;20482;-76
2022/06/08 04:05:18;;;;;;;3.72;1.85;;;;;11.10;93730.00;;;;7393135;19;20612;-78
2022/06/08 04:07:52;;;;;;;3.20;1.77;;;;;11.20;93728.00;;;;7389607;19;20149;-76
2022/06/08 04:10:19;;;;;;;5.20;1.73;;;;;11.30;93736.00;;;;7394635;19;20128;-75
2022/06/08 04:12:47;;;;;;;9.13;1.63;;;;;11.40;93730.00;;;;7397837;19;20148;-76
2022/06/08 04:18:11;;;;;;;5.50;1.73;;;;;11.70;93726.00;;;;7394594;19;20137;-75
2022/06/08 04:20:48;;;;;;;4.95;2.00;;;;;11.60;93734.00;;;;7398466;19;20548;-77
2022/06/08 04:23:17;;;;;;;3.53;1.73;;;;;11.70;93725.00;;;;7400664;19;20145;-75
2022/06/08 04:25:45;;;;;;;1.98;1.40;;;;;11.80;93715.00;;;;7396581;19;20121;-75
2022/06/08 04:28:22;;;;;;;4.38;2.00;;;;;11.80;93707.00;;;;7397982;19;20145;-76
2022/06/08 04:30:51;;;;;;;5.43;1.70;;;;;11.80;93709.00;;;;7398023;19;20450;-77
2022/06/08 04:33:19;;;;;;;5.32;1.60;;;;;11.80;93708.00;;;;7396382;19;20140;-76
2022/06/08 04:35:54;;;;;;;3.67;1.60;;;;;11.60;93716.00;;;;7395712;19;20153;-77
2022/06/08 04:38:22;;;;;;;4.93;1.85;;;;;11.60;93711.00;;;;7396406;19;20216;-77
2022/06/08 04:41:07;;;;;;;5.50;1.73;;;;;11.60;93716.00;;;;7397395;19;20512;-75
2022/06/08 04:43:49;;;;;;;2.95;1.58;;;;;11.60;93711.00;;;;7396100;19;20137;-76
2022/06/08 04:46:24;;;;;;;6.43;1.80;;;;;11.60;93713.00;;;;7396673;19;20532;-78
2022/06/08 04:49:08;;;;;;;5.20;1.75;;;;;11.80;93712.00;;;;7400605;19;20158;-77
2022/06/08 04:51:36;;;;;;;8.65;1.77;;;;;11.90;93722.00;;;;7393952;19;20128;-76
2022/06/08 04:54:10;;;;;;;3.45;1.75;;;;;12.20;93718.00;;;;7396860;19;20503;-77
2022/06/08 04:56:38;;;;;;;7.43;1.60;;;;;12.30;93715.00;;;;7397909;19;20135;-76
2022/06/08 04:59:06;;;;;;;4.18;1.40;;;;;12.50;93720.00;;;;7398040;19;20141;-77
2022/06/08 05:01:40;;;;;;;3.75;1.63;;;;;12.60;93720.00;;;;7394742;19;20134;-76
2022/06/08 05:04:08;;;;;;;6.38;1.80;;;;;12.80;93705.00;;;;7396475;19;20156;-77
2022/06/08 05:06:36;;;;;;;6.28;1.55;;;;;12.90;93710.00;;;;7397441;19;20121;-78
2022/06/08 05:09:10;;;;;;;2.75;1.50;;;;;13.00;93716.00;;;;7398846;19;20140;-77
2022/06/08 05:11:38;;;;;;;6.55;1.80;;;;;13.00;93718.00;;;;7396617;19;20144;-77
2022/06/08 05:14:06;;;;;;;4.63;1.65;;;;;13.10;93708.00;;;;7395730;19;20165;-75
2022/06/08 05:16:40;;;;;;;3.53;1.60;;;;;13.30;93718.00;;;;7396565;19;20655;-76
2022/06/08 05:19:08;;;;;;;3.65;1.52;;;;;13.30;93714.00;;;;7397473;19;20145;-76
2022/06/08 05:21:37;;;;;;;2.83;1.48;;;;;13.50;93722.00;;;;7392283;19;20164;-77
2022/06/08 05:24:10;;;;;;;4.75;1.58;;;;;13.50;93712.00;;;;7395620;19;20145;-77
2022/06/08 05:26:38;;;;;;;4.88;1.58;;;;;13.60;93713.00;;;;7396609;19;20144;-77
2022/06/08 05:29:06;;;;;;;3.53;1.50;;;;;13.60;93709.00;;;;7397961;19;20149;-76
2022/06/08 05:31:41;;;;;;;5.88;1.83;;;;;13.80;93705.00;;;;7394396;19;20144;-76
2022/06/08 05:34:09;;;;;;;7.35;1.92;;;;;13.90;93712.00;;;;7395481;19;20165;-77
2022/06/08 05:36:37;;;;;;;3.72;1.48;;;;;14.00;93714.00;;;;7396816;19;20140;-76
2022/06/08 05:39:11;;;;;;;2.33;1.52;;;;;14.20;93710.00;;;;7397191;19;20151;-78
2022/06/08 05:41:39;;;;;;;3.28;1.63;;;;;14.30;93699.00;;;;7393669;19;20125;-76
2022/06/08 05:44:07;;;;;;;3.95;1.20;;;;;14.30;93692.00;;;;7394879;19;20166;-76
2022/06/08 05:46:48;;;;;;;3.28;1.42;;;;;14.40;93683.00;;;;7395741;19;20164;-77
2022/06/08 05:49:22;;;;;;;5.05;1.35;;;;;14.60;93686.00;;;;7406271;19;20604;-76
2022/06/08 05:51:56;;;;;;;3.10;1.40;;;;;14.60;93695.00;;;;7402135;19;20137;-76
2022/06/08 05:54:24;;;;;;;4.15;1.58;;;;;14.70;93686.00;;;;7399996;19;20558;-75
2022/06/08 05:56:51;;;;;;;3.13;1.50;;;;;14.70;93695.00;;;;7403872;19;20141;-77
2022/06/08 05:59:25;;;;;;;4.68;1.67;;;;;14.70;93689.00;;;;7403480;19;20137;-76
2022/06/08 06:01:53;;;;;;;4.18;1.27;;;;;14.80;93687.00;;;;7403386;19;20154;-77
2022/06/08 06:04:22;;;;;;;3.85;1.50;;;;;14.90;93692.00;;;;7404148;19;20133;-75
2022/06/08 06:06:56;;;;;;;5.07;1.60;;;;;14.90;93682.00;;;;7404518;19;20128;-76
2022/06/08 06:09:24;;;;;;;3.28;1.50;;;;;14.90;93683.00;;;;7401538;19;20664;-77
2022/06/08 06:11:52;;;;;;;4.07;1.40;;;;;15.00;93692.00;;;;7401022;19;20145;-76
2022/06/08 06:14:26;;;;;;;4.18;1.60;;;;;14.90;93684.00;;;;7402262;19;20128;-77
2022/06/08 06:16:54;;;;;;;3.90;1.40;;;;;15.10;93685.00;;;;7403526;19;20143;-77
2022/06/08 06:19:22;;;;;;;2.63;1.40;;;;;15.00;93680.00;;;;7398600;19;20158;-76
2022/06/08 06:21:57;;;;;;;2.47;1.35;;;;;15.10;93683.00;;;;7397460;19;20172;-76
2022/06/08 06:24:25;;;;;;;3.58;1.65;;;;;15.10;93680.00;;;;7400656;19;20153;-74
2022/06/08 06:26:53;;;;;;;4.65;1.50;;;;;15.40;93678.00;;;;7401931;19;20192;-76
2022/06/08 06:29:27;;;;;;;4.00;1.50;;;;;15.60;93658.00;;;;7398239;19;20148;-77
2022/06/08 06:32:00;;;;;;;5.13;1.60;;;;;15.90;93673.00;;;;7399206;19;20140;-77
2022/06/08 06:34:34;;;;;;;2.83;1.48;;;;;16.00;93667.00;;;;7400224;19;20144;-78
2022/06/08 06:37:02;;;;;;;3.13;1.60;;;;;16.20;93658.00;;;;7401755;19;20139;-78
2022/06/08 06:39:30;;;;;;;4.05;1.88;;;;;16.40;93671.00;;;;7398246;19;20612;-78
2022/06/08 06:42:05;;;;;;;5.28;1.67;;;;;16.40;93669.00;;;;7399786;19;20146;-78
2022/06/08 06:44:33;;;;;;;4.75;1.38;;;;;16.50;93653.00;;;;7400102;19;20151;-78
2022/06/08 06:47:00;;;;;;;2.08;1.10;;;;;16.90;93657.00;;;;7401135;19;20181;-76
2022/06/08 06:49:41;;;;;;;6.78;1.45;;;;;16.80;93658.00;;;;7398816;19;20144;-77
2022/06/08 06:52:12;;;;;;;2.90;1.25;;;;;16.70;93664.00;;;;7398990;19;20140;-77
2022/06/08 06:54:47;;;;;;;3.50;1.20;;;;;16.80;93660.00;;;;7401247;19;20155;-78
2022/06/08 06:57:15;;;;;;;3.55;1.65;;;;;16.90;93655.00;;;;7400273;19;20193;-75
2022/06/08 06:59:43;;;;;;;4.20;1.45;;;;;17.10;93646.00;;;;7399533;19;20141;-79
2022/06/08 07:02:21;;;;;;;3.85;1.50;;;;;17.40;93647.00;;;;7397981;19;20180;-77
2022/06/08 07:04:49;;;;;;;4.75;1.30;;;;;17.40;93637.00;;;;7396709;19;20605;-78
2022/06/08 07:07:18;;;;;;;3.30;1.08;;;;;17.60;93640.00;;;;7395484;19;20141;-77
2022/06/08 07:09:52;;;;;;;2.35;1.20;;;;;17.40;93641.00;;;;7397228;19;20144;-77
2022/06/08 07:12:20;;;;;;;3.78;1.42;;;;;17.60;93640.00;;;;7399807;19;20125;-76
2022/06/08 07:14:47;;;;;;;5.55;1.50;;;;;17.50;93633.00;;;;7397911;19;20145;-78
2022/06/08 07:17:21;;;;;;;3.92;1.10;;;;;17.40;93635.00;;;;7395659;19;20132;-78
2022/06/08 07:19:49;;;;;;;2.92;1.20;;;;;17.30;93628.00;;;;7394923;19;20133;-76
2022/06/08 07:22:18;;;;;;;6.30;1.48;;;;;17.30;93629.00;;;;7396824;19;20661;-76
2022/06/08 07:24:53;;;;;;;3.95;1.30;;;;;17.50;93621.00;;;;7400984;19;20156;-78
2022/06/08 07:27:22;;;;;;;3.38;1.10;;;;;17.90;93621.00;;;;7397743;19;20641;-80
2022/06/08 07:29:51;;;;;;;4.18;1.25;;;;;18.10;93622.00;;;;7400525;19;20148;-76
2022/06/08 07:32:27;;;;;;;3.10;1.40;;;;;18.10;93619.00;;;;7399702;19;20161;-77
2022/06/08 07:34:55;;;;;;;2.35;1.05;;;;;18.10;93619.00;;;;7399950;19;20145;-78
2022/06/08 07:37:25;;;;;;;4.43;1.55;;;;;18.20;93608.00;;;;7399559;19;20446;-79
2022/06/08 07:40:00;;;;;;;6.00;1.50;;;;;18.40;93610.00;;;;7398529;19;20148;-78
2022/06/08 07:42:28;;;;;;;3.03;1.20;;;;;18.70;93611.00;;;;7399692;19;20508;-77
2022/06/08 07:44:56;;;;;;;3.05;1.30;;;;;18.70;93606.00;;;;7400055;19;20171;-76
2022/06/08 07:50:31;;;;;;;4.75;1.55;;;;;18.90;93603.00;;;;7399512;19;20473;-78
2022/06/08 07:53:06;;;;;;;4.80;1.80;;;;;18.90;93594.00;;;;7400107;19;20144;-77
2022/06/08 07:55:34;;;;;;;4.40;1.45;;;;;19.40;93595.00;;;;7397756;19;20162;-77
2022/06/08 07:58:03;;;;;;;2.20;1.10;;;;;18.90;93615.00;;;;7398829;19;20132;-79
2022/06/08 08:00:38;;;;;;;1.92;1.17;;;;;18.10;93600.00;;;;7399501;19;20128;-78
2022/06/08 08:03:06;;;;;;;3.85;1.33;;;;;18.40;93616.00;;;;7399751;19;20140;-78
2022/06/08 08:05:38;;;;;;;2.75;1.30;;;;;18.20;93588.00;;;;7396681;19;20153;-79
2022/06/08 08:08:14;;;;;;;3.20;1.20;;;;;19.00;93590.00;;;;7398859;19;20635;-76
2022/06/08 08:10:42;;;;;;;5.95;1.55;;;;;18.60;93602.00;;;;7399589;19;20141;-77
2022/06/08 08:13:09;;;;;;;3.85;1.48;;;;;19.10;93579.00;;;;7399031;19;20208;-78
2022/06/08 08:15:45;;;;;;;1.98;1.20;;;;;19.80;93598.00;;;;7396198;19;20124;-80
2022/06/08 08:18:14;;;;;;;4.43;1.27;;;;;19.90;93581.00;;;;7396756;19;20129;-78
2022/06/08 08:20:42;;;;;;;4.30;1.50;;;;;20.10;93575.00;;;;7398132;19;20178;-80
2022/06/08 08:23:17;;;;;;;3.53;1.17;;;;;20.40;93575.00;;;;7401081;19;20149;-79
2022/06/08 08:25:45;;;;;;;4.53;1.38;;;;;20.30;93574.00;;;;7396503;19;20208;-77
2022/06/08 08:28:12;;;;;;;3.30;1.05;;;;;19.90;93573.00;;;;7397072;19;20610;-77
2022/06/08 08:30:49;;;;;;;4.28;1.52;;;;;20.20;93554.00;;;;7398707;19;20152;-78
2022/06/08 08:33:17;;;;;;;5.28;1.20;;;;;20.50;93559.00;;;;7396093;19;20169;-78
2022/06/08 08:35:45;;;;;;;4.05;1.23;;;;;21.00;93544.00;;;;7398202;19;20463;-76
2022/06/08 08:38:21;;;;;;;2.65;1.45;;;;;21.80;93541.00;;;;7397426;19;20132;-79
2022/06/08 08:41:02;;;;;;;5.28;1.23;;;;;21.50;93563.00;;;;7398069;19;20493;-79
2022/06/08 08:43:38;;;;;;;3.15;1.15;;;;;20.40;93551.00;;;;7395889;19;20608;-78
2022/06/08 08:46:48;;;;;;;2.70;1.20;;;;;20.50;93547.00;;;;7397702;19;20136;-77
2022/06/08 08:49:26;;;;;;;2.10;1.30;;;;;20.50;93530.00;;;;7394276;19;20212;-78
2022/06/08 08:52:01;;;;;;;4.90;1.40;;;;;21.20;93529.00;;;;7397191;19;20168;-78
2022/06/08 08:54:38;;;;;;;2.42;1.05;;;;;21.90;93530.00;;;;7397978;19;20524;-77
2022/06/08 08:57:12;;;;;;;4.15;1.38;;;;;21.70;93526.00;;;;7398311;19;20556;-79
2022/06/08 08:59:50;;;;;;;3.53;1.10;;;;;21.70;93536.00;;;;7393724;19;20137;-80
2022/06/08 09:05:21;;;;;;;2.47;1.20;;;;;20.00;93547.00;;;;7397299;19;20133;-77
2022/06/08 09:07:49;;;;;;;6.80;1.00;;;;;19.50;93546.00;;;;7394657;19;20151;-77
2022/06/08 09:10:26;;;;;;;3.95;1.40;;;;;19.00;93546.00;;;;7396582;19;20144;-79
2022/06/08 09:12:54;;;;;;;1.77;1.30;;;;;18.50;93551.00;;;;7397002;19;20144;-76
2022/06/08 09:15:50;;;;;;;3.38;1.40;;;;;18.00;93554.00;;;;7393212;19;20140;-77
2022/06/08 09:18:34;;;;;;;2.83;1.30;;;;;17.80;93551.00;;;;7395929;19;20148;-78
2022/06/08 09:21:26;;;;;;;3.42;1.05;;;;;17.80;93546.00;;;;7397026;19;20176;-77
2022/06/08 09:24:37;;;;;;;3.92;1.20;;;;;17.80;93543.00;;;;7395647;19;20129;-79
2022/06/08 09:27:24;;;;;;;3.35;1.30;;;;;17.70;93549.00;;;;7393483;19;20649;-78
2022/06/08 09:30:04;;;;;;;3.92;1.60;;;;;17.60;93548.00;;;;7397231;19;20170;-79
2022/06/08 09:32:44;;;;;;;5.00;1.20;;;;;17.40;93555.00;;;;7395969;19;20129;-77
2022/06/08 09:35:21;;;;;;;5.22;1.50;;;;;17.50;93554.00;;;;7393815;19;20228;-78
2022/06/08 09:37:52;;;;;;;2.80;1.40;;;;;17.30;93554.00;;;;7394017;19;20153;-78
2022/06/08 09:40:40;;;;;;;4.85;1.50;;;;;17.40;93544.00;;;;7393238;19;20135;-77
2022/06/08 09:43:51;;;;;;;4.18;1.50;;;;;17.40;93546.00;;;;7395493;19;20144;-77
2022/06/08 09:53:05;;;;;;;1.85;1.15;;;;;18.20;93517.00;;;;7395195;19;20466;-76
2022/06/08 09:55:44;;;;;;;8.38;1.45;;;;;18.50;93524.00;;;;7393670;19;20188;-76
2022/06/08 09:58:37;;;;;;;2.83;1.08;;;;;19.10;93523.00;;;;7392014;19;20462;-77
2022/06/08 10:01:23;;;;;;;2.42;1.25;;;;;18.90;93514.00;;;;7393292;19;20152;-77
2022/06/08 10:04:28;;;;;;;3.65;1.50;;;;;18.50;93516.00;;;;7391504;19;20145;-77
2022/06/08 10:07:17;;;;;;;4.78;1.30;;;;;18.30;93515.00;;;;7391414;19;20239;-78
2022/06/08 10:10:13;;;;;;;2.95;0.95;;;;;18.20;93508.00;;;;7390297;19;20125;-77
2022/06/08 10:12:44;;;;;;;3.40;1.10;;;;;18.10;93509.00;;;;7391735;19;20125;-77
2022/06/08 10:15:44;;;;;;;4.07;1.20;;;;;18.10;93508.00;;;;7388502;19;20220;-78
2022/06/08 10:18:44;;;;;;;3.08;1.30;;;;;18.50;93494.00;;;;7389742;19;20121;-78
2022/06/08 10:21:41;;;;;;;2.25;1.30;;;;;19.20;93491.00;;;;7386870;19;20139;-78
2022/06/08 10:24:26;;;;;;;2.63;1.45;;;;;20.20;93479.00;;;;7389379;19;20151;-78
2022/06/08 10:27:24;;;;;;;3.22;1.20;;;;;21.30;93478.00;;;;7388627;19;20550;-76
2022/06/08 10:30:06;;;;;;;2.47;1.10;;;;;21.10;93470.00;;;;7390411;19;20127;-81
2022/06/08 10:33:00;;;;;;;3.65;1.40;;;;;21.30;93480.00;;;;7385704;19;20589;-78
2022/06/08 10:35:49;;;;;;;2.80;1.30;;;;;20.00;93454.00;;;;7394985;19;20136;-76
2022/06/08 10:38:33;;;;;;;2.80;1.10;;;;;19.80;93466.00;;;;7396041;19;20162;-78
2022/06/08 10:44:31;;;;;;;3.78;1.02;;;;;20.70;93463.00;;;;7395947;19;20137;-76
2022/06/08 10:47:18;;;;;;;5.10;1.30;;;;;20.40;93462.00;;;;7395415;19;20516;-76
2022/06/08 10:50:08;;;;;;;2.03;1.20;;;;;20.20;93458.00;;;;7396111;19;20204;-79
2022/06/08 10:52:45;;;;;;;2.28;1.10;;;;;20.30;93461.00;;;;7398087;19;20128;-76
2022/06/08 10:55:20;;;;;;;3.58;1.17;;;;;20.30;93447.00;;;;7395801;19;20460;-76
2022/06/08 10:57:51;;;;;;;3.22;1.33;;;;;21.80;93432.00;;;;7395275;19;20172;-76
2022/06/08 11:00:22;;;;;;;2.65;1.35;;;;;22.60;93422.00;;;;7393434;19;20573;-76
2022/06/08 11:03:01;;;;;;;3.88;1.20;;;;;22.70;93441.00;;;;7397471;19;20124;-77
2022/06/08 11:05:37;;;;;;;4.60;1.40;;;;;21.90;93449.00;;;;7394645;19;20129;-78
2022/06/08 11:08:51;;;;;;;4.90;1.73;;;;;21.10;93431.00;;;;7394942;19;20196;-77
2022/06/08 11:11:44;;;;;;;5.72;1.10;;;;;22.00;93421.00;;;;7396553;19;20137;-76
2022/06/08 11:14:53;;;;;;;3.45;1.40;;;;;22.90;93426.00;;;;7395834;19;20598;-81
2022/06/08 11:17:26;;;;;;;5.20;1.20;;;;;22.30;93433.00;;;;7393714;19;20141;-74
2022/06/08 11:20:25;;;;;;;4.97;1.45;;;;;21.60;93427.00;;;;7392200;19;20162;-75
2022/06/08 11:23:05;;;;;;;2.80;1.30;;;;;22.20;93414.00;;;;7394442;19;20172;-77
2022/06/08 11:25:53;;;;;;;5.97;1.20;;;;;21.90;93434.00;;;;7394573;19;20612;-78
2022/06/08 11:28:45;;;;;;;1.75;1.25;;;;;20.80;93424.00;;;;7394472;19;20124;-76
2022/06/08 11:31:28;;;;;;;2.50;1.30;;;;;21.00;93421.00;;;;7394876;19;20140;-77
2022/06/08 11:34:12;;;;;;;1.35;1.00;;;;;21.10;93429.00;;;;7396730;19;20507;-76
2022/06/08 11:37:17;;;;;;;1.98;1.00;;;;;20.90;93426.00;;;;7394649;19;20133;-77
2022/06/08 11:40:12;;;;;;;4.93;1.20;;;;;20.70;93430.00;;;;7393803;19;20192;-76
2022/06/08 11:42:57;;;;;;;3.75;1.30;;;;;20.30;93430.00;;;;7395131;19;20144;-76
2022/06/08 11:45:58;;;;;;;2.45;1.10;;;;;20.20;93428.00;;;;7393417;19;20125;-76
2022/06/08 11:48:54;;;;;;;3.20;1.20;;;;;20.20;93419.00;;;;7391653;19;20509;-77
2022/06/08 11:51:45;;;;;;;1.63;1.17;;;;;21.10;93413.00;;;;7394275;19;20166;-77
2022/06/08 11:54:37;;;;;;;5.03;1.40;;;;;22.30;93399.00;;;;7395642;19;20465;-78
2022/06/08 11:57:17;;;;;;;3.08;0.90;;;;;22.80;93401.00;;;;7393865;19;20615;-76
2022/06/08 11:59:55;;;;;;;3.00;1.40;;;;;22.60;93380.00;;;;7391404;19;20125;-76
2022/06/08 12:02:39;;;;;;;2.72;1.23;;;;;23.10;93400.00;;;;7395023;19;20151;-76
2022/06/08 12:05:19;;;;;;;2.58;1.38;;;;;22.60;93403.00;;;;7395130;19;20606;-75
2022/06/08 12:07:50;;;;;;;4.60;1.23;;;;;21.80;93407.00;;;;7394229;19;20492;-76
2022/06/08 12:10:27;;;;;;;2.45;1.25;;;;;21.90;93411.00;;;;7393135;19;20140;-75
2022/06/08 12:12:58;;;;;;;2.78;1.17;;;;;21.50;93395.00;;;;7392736;19;20153;-77
2022/06/08 12:15:43;;;;;;;4.28;1.20;;;;;20.90;93409.00;;;;7393776;19;20632;-78
2022/06/08 12:18:31;;;;;;;2.58;1.08;;;;;20.80;93408.00;;;;7395078;19;20434;-77
2022/06/08 12:21:19;;;;;;;2.25;1.20;;;;;20.80;93419.00;;;;7393033;19;20162;-75
2022/06/08 12:24:10;;;;;;;5.57;1.13;;;;;21.10;93411.00;;;;7392948;19;20129;-76
2022/06/08 12:26:51;;;;;;;4.50;1.40;;;;;21.30;93398.00;;;;7392655;19;20137;-76
2022/06/08 12:29:25;;;;;;;3.70;1.30;;;;;21.80;93394.00;;;;7392114;19;20181;-76
2022/06/08 12:32:05;;;;;;;3.05;1.25;;;;;22.10;93387.00;;;;7392479;19;20141;-78
2022/06/08 12:34:40;;;;;;;2.42;1.33;;;;;23.20;93381.00;;;;7393300;19;20604;-77
2022/06/08 12:37:28;;;;;;;3.80;1.10;;;;;23.50;93384.00;;;;7392370;19;20140;-77
2022/06/08 12:40:20;;;;;;;2.97;1.17;;;;;23.40;93387.00;;;;7391621;19;20145;-77
2022/06/08 12:43:15;;;;;;;2.45;1.00;;;;;22.30;93393.00;;;;7392050;19;20133;-74
2022/06/08 12:46:02;;;;;;;2.92;1.27;;;;;21.60;93400.00;;;;7392045;19;20147;-75
2022/06/08 12:48:54;;;;;;;2.08;1.20;;;;;21.30;93395.00;;;;7389185;19;20153;-75
2022/06/08 12:51:56;;;;;;;2.45;1.00;;;;;21.20;93394.00;;;;7391590;19;20117;-77
2022/06/08 12:54:33;;;;;;;2.90;1.10;;;;;21.70;93396.00;;;;7391350;19;20145;-77
2022/06/08 12:57:14;;;;;;;4.07;1.27;;;;;21.20;93403.00;;;;7393603;19;20608;-75
2022/06/08 12:59:51;;;;;;;1.33;0.80;;;;;21.30;93391.00;;;;7393137;19;20513;-76
2022/06/08 13:02:26;;;;;;;4.18;1.00;;;;;21.30;93393.00;;;;7391309;19;20133;-76
2022/06/08 13:05:04;;;;;;;1.73;0.95;;;;;21.00;93392.00;;;;7392039;19;20151;-75
2022/06/08 13:07:34;;;;;;;3.30;1.30;;;;;21.30;93387.00;;;;7391177;19;20150;-76
2022/06/08 13:10:09;;;;;;;2.35;1.20;;;;;21.40;93387.00;;;;7391709;19;20596;-75
2022/06/08 13:12:53;;;;;;;2.10;1.00;;;;;21.40;93378.00;;;;7395826;19;20597;-75
2022/06/08 13:15:31;;;;;;;2.67;1.08;;;;;21.80;93374.00;;;;7388234;19;20145;-77
2022/06/08 13:17:59;;;;;;;1.40;0.82;;;;;22.00;93378.00;;;;7395620;19;20121;-76
2022/06/08 13:20:30;;;;;;;0.98;0.77;;;;;21.60;93384.00;;;;7391726;19;20125;-76
2022/06/08 13:23:05;;;;;;;4.05;1.25;;;;;21.60;93378.00;;;;7393472;19;20154;-76
2022/06/08 13:25:35;;;;;;;2.67;1.20;;;;;21.30;93372.00;;;;7395150;19;20133;-76
2022/06/08 13:28:21;;;;;;;4.63;1.02;;;;;21.30;93374.00;;;;7394889;19;20124;-76
2022/06/08 13:30:57;;;;;;;4.07;1.40;;;;;21.80;93374.00;;;;7393907;19;20596;-75
2022/06/08 13:36:30;;;;;;;2.75;1.00;;;;;22.20;93370.00;;;;7390610;19;20222;-76
2022/06/08 13:39:28;;;;;;;2.20;1.20;;;;;21.70;93383.00;;;;7393528;19;20132;-76